Time;durP1;ratioP1;P1;durP2;ratioP2;P2;SDS_P1;SDS_P2;PMS_P1;PMS_P2;Temp;Humidity;BMP_temperature;BMP_pressure;BME280_temperature;BME280_humidity;BME280_pressure;Samples;Min_cycle;Max_cycle;Signal;HPM_P1;HPM_P2
2022/03/21 00:00:41;;;;;;;3.33;2.00;;;17.90;51.10;;;;;;5089429;27;45415;-76
2022/03/21 00:03:09;;;;;;;3.30;2.00;;;17.90;51.30;;;;;;5107237;27;46183;-76
2022/03/21 00:05:36;;;;;;;3.17;1.95;;;17.90;51.10;;;;;;5108139;27;45327;-76
2022/03/21 00:08:05;;;;;;;2.72;1.63;;;17.90;51.40;;;;;;5108865;27;45252;-76
2022/03/21 00:10:33;;;;;;;3.28;2.00;;;17.90;51.60;;;;;;5106334;27;45315;-76
2022/03/21 00:13:00;;;;;;;5.32;1.70;;;17.90;51.30;;;;;;5105377;27;47474;-76
2022/03/21 00:15:29;;;;;;;3.20;2.10;;;17.90;51.40;;;;;;5109319;27;46261;-76
2022/03/21 00:17:56;;;;;;;3.05;2.08;;;17.90;51.80;;;;;;5106100;27;45282;-76
2022/03/21 00:20:23;;;;;;;3.53;1.80;;;17.90;51.80;;;;;;5091413;27;45173;-76
2022/03/21 00:22:52;;;;;;;3.38;2.00;;;17.90;52.10;;;;;;5107470;27;47140;-76
2022/03/21 00:25:20;;;;;;;3.33;2.10;;;17.90;52.20;;;;;;5108211;27;45213;-76
2022/03/21 00:27:47;;;;;;;2.47;1.73;;;17.90;52.20;;;;;;5106561;27;45633;-76
2022/03/21 00:30:14;;;;;;;3.70;1.75;;;17.80;52.00;;;;;;5108067;27;45232;-76
2022/03/21 00:32:42;;;;;;;4.43;2.13;;;17.90;52.20;;;;;;5107412;27;48016;-76
2022/03/21 00:35:14;;;;;;;3.50;1.92;;;17.80;52.00;;;;;;5106193;27;45237;-76
2022/03/21 00:37:43;;;;;;;3.60;1.85;;;17.80;51.40;;;;;;5108113;27;45305;-76
2022/03/21 00:40:11;;;;;;;3.90;2.20;;;17.90;51.70;;;;;;5105986;27;45592;-76
2022/03/21 00:42:40;;;;;;;3.25;2.30;;;17.90;51.70;;;;;;5105778;27;46570;-76
2022/03/21 00:45:09;;;;;;;3.03;2.00;;;17.90;51.60;;;;;;5108233;27;45543;-76
2022/03/21 00:47:36;;;;;;;2.72;1.83;;;17.90;51.40;;;;;;5106924;27;45254;-76
2022/03/21 00:50:04;;;;;;;3.80;2.10;;;17.90;51.40;;;;;;5104706;27;45464;-75
2022/03/21 00:52:32;;;;;;;3.63;1.90;;;17.90;51.20;;;;;;5106821;27;45545;-76
2022/03/21 00:54:59;;;;;;;3.25;1.90;;;17.90;51.30;;;;;;5107376;27;45654;-76
2022/03/21 00:57:26;;;;;;;3.03;1.67;;;17.90;51.30;;;;;;5104635;27;46026;-76
2022/03/21 00:59:54;;;;;;;5.40;2.08;;;17.90;51.20;;;;;;5105870;27;45484;-76
2022/03/21 01:02:21;;;;;;;4.20;1.90;;;17.90;51.40;;;;;;5106904;27;46629;-76
2022/03/21 01:04:48;;;;;;;2.20;1.70;;;17.90;51.60;;;;;;5106785;27;45518;-76
2022/03/21 01:07:14;;;;;;;2.88;1.73;;;17.90;51.70;;;;;;5108135;27;45538;-76
2022/03/21 01:09:41;;;;;;;2.97;1.75;;;17.90;51.40;;;;;;5104171;27;45450;-76
2022/03/21 01:12:09;;;;;;;3.60;1.70;;;17.90;51.40;;;;;;5108123;27;46770;-76
2022/03/21 01:14:36;;;;;;;3.72;2.03;;;17.80;51.30;;;;;;5087585;28;45289;-76
2022/03/21 01:17:05;;;;;;;3.00;1.80;;;17.90;51.50;;;;;;5104132;27;45318;-76
2022/03/21 01:19:31;;;;;;;2.58;1.70;;;17.90;51.50;;;;;;5107166;27;45228;-76
2022/03/21 01:21:58;;;;;;;2.83;1.90;;;17.80;51.30;;;;;;5107928;27;46454;-77
2022/03/21 01:24:26;;;;;;;5.28;2.10;;;17.90;51.40;;;;;;5106539;27;45247;-76
2022/03/21 01:26:53;;;;;;;3.33;1.83;;;17.80;51.40;;;;;;5108212;27;45197;-76
2022/03/21 01:29:20;;;;;;;3.05;1.70;;;17.90;51.50;;;;;;5107113;27;45253;-76
2022/03/21 01:31:46;;;;;;;3.53;2.28;;;17.80;51.20;;;;;;5103731;27;46465;-76
2022/03/21 01:34:15;;;;;;;3.17;2.05;;;17.90;51.40;;;;;;5107845;27;45276;-76
2022/03/21 01:36:42;;;;;;;2.65;1.85;;;17.90;51.30;;;;;;5103725;27;45193;-76
2022/03/21 01:39:09;;;;;;;3.20;2.05;;;17.90;51.40;;;;;;5105894;27;45213;-76
2022/03/21 01:41:36;;;;;;;2.60;1.85;;;17.90;51.40;;;;;;5106922;27;45353;-76
2022/03/21 01:44:05;;;;;;;2.70;2.00;;;17.90;51.20;;;;;;5106864;27;45146;-76
2022/03/21 01:46:33;;;;;;;3.05;1.90;;;17.90;51.10;;;;;;5106661;27;45288;-76
2022/03/21 01:49:00;;;;;;;5.80;2.10;;;17.90;51.10;;;;;;5104941;27;45343;-76
2022/03/21 01:51:29;;;;;;;4.55;2.15;;;17.90;51.10;;;;;;5108816;27;46626;-76
2022/03/21 01:56:44;;;;;;;2.83;1.55;;;17.90;51.40;;;;;;5107521;27;45188;-76
2022/03/21 01:59:12;;;;;;;4.97;1.95;;;17.90;51.40;;;;;;5109963;27;45228;-76
2022/03/21 02:01:40;;;;;;;5.00;1.98;;;17.90;51.60;;;;;;5109498;27;45718;-76
2022/03/21 02:04:08;;;;;;;2.95;1.85;;;17.90;51.70;;;;;;5109899;27;45145;-76
2022/03/21 02:06:38;;;;;;;4.20;1.80;;;17.90;51.70;;;;;;5110806;27;45341;-76
2022/03/21 02:09:07;;;;;;;2.75;1.83;;;17.90;51.90;;;;;;5108788;27;45188;-76
2022/03/21 02:11:34;;;;;;;4.00;2.05;;;17.90;51.80;;;;;;5110986;27;45212;-76
2022/03/21 02:14:02;;;;;;;2.33;1.85;;;17.80;51.40;;;;;;5110726;27;45694;-76
2022/03/21 02:16:31;;;;;;;2.35;1.83;;;17.80;51.50;;;;;;5108019;27;45376;-76
2022/03/21 02:19:01;;;;;;;3.53;2.28;;;17.80;51.50;;;;;;5107407;27;45321;-76
2022/03/21 02:21:34;;;;;;;3.22;2.17;;;17.80;51.50;;;;;;5104740;27;46177;-76
2022/03/21 02:24:07;;;;;;;4.30;2.20;;;17.80;51.60;;;;;;5109308;27;46517;-76
2022/03/21 02:26:36;;;;;;;3.70;1.95;;;17.80;51.40;;;;;;5111279;27;45836;-76
2022/03/21 02:29:04;;;;;;;2.80;2.00;;;17.90;51.40;;;;;;5108156;27;45231;-75
2022/03/21 02:31:32;;;;;;;4.80;2.10;;;17.90;51.40;;;;;;5110173;27;46608;-76
2022/03/21 02:34:00;;;;;;;6.20;2.38;;;17.90;51.20;;;;;;5108092;27;45390;-76
2022/03/21 02:36:28;;;;;;;3.42;2.00;;;17.90;51.20;;;;;;5106295;27;45281;-76
2022/03/21 02:38:57;;;;;;;2.95;1.65;;;17.90;51.10;;;;;;5106869;27;45317;-75
2022/03/21 02:41:24;;;;;;;3.13;2.00;;;17.90;51.20;;;;;;5107970;27;45451;-76
2022/03/21 02:43:57;;;;;;;4.45;2.03;;;17.90;51.10;;;;;;5109159;27;45161;-76
2022/03/21 02:46:25;;;;;;;3.10;2.15;;;17.90;51.10;;;;;;5109222;27;45245;-76
2022/03/21 02:48:56;;;;;;;3.70;2.33;;;17.90;51.10;;;;;;5099314;27;45277;-76
2022/03/21 02:51:23;;;;;;;4.07;2.40;;;17.90;51.10;;;;;;5107544;27;46189;-75
2022/03/21 02:53:51;;;;;;;3.78;1.98;;;17.90;51.10;;;;;;5108576;27;45301;-76
2022/03/21 02:56:20;;;;;;;3.25;2.00;;;17.90;51.20;;;;;;5110794;27;45180;-76
2022/03/21 02:58:47;;;;;;;3.70;2.17;;;17.90;51.30;;;;;;5106430;27;45534;-76
2022/03/21 03:01:16;;;;;;;4.30;2.00;;;17.90;51.40;;;;;;5105675;27;46608;-76
2022/03/21 03:03:43;;;;;;;3.30;2.00;;;17.80;51.30;;;;;;5108026;27;45348;-75
2022/03/21 03:06:10;;;;;;;2.80;1.88;;;17.80;51.20;;;;;;5108754;27;45243;-75
2022/03/21 03:08:40;;;;;;;3.22;1.95;;;17.80;51.20;;;;;;5109044;27;45127;-76
2022/03/21 03:11:07;;;;;;;3.13;2.00;;;17.80;51.10;;;;;;5109764;27;46176;-76
2022/03/21 03:13:34;;;;;;;4.05;2.33;;;17.80;51.10;;;;;;5108578;27;45711;-76
2022/03/21 03:16:00;;;;;;;3.30;1.98;;;17.80;51.00;;;;;;5108830;27;45270;-75
2022/03/21 03:18:29;;;;;;;3.47;2.00;;;17.80;51.00;;;;;;5107526;27;45115;-76
2022/03/21 03:20:57;;;;;;;3.40;2.00;;;17.80;50.80;;;;;;5109390;27;45459;-75
2022/03/21 03:23:26;;;;;;;2.58;2.00;;;17.80;52.00;;;;;;5109964;27;45169;-75
2022/03/21 03:25:58;;;;;;;5.15;2.28;;;17.90;50.80;;;;;;5108820;27;45320;-76
2022/03/21 03:28:25;;;;;;;3.60;1.95;;;17.80;50.70;;;;;;5103332;27;45514;-75
2022/03/21 03:30:52;;;;;;;3.20;2.20;;;17.90;50.70;;;;;;5109048;27;47793;-76
2022/03/21 03:33:19;;;;;;;3.28;2.25;;;17.90;50.70;;;;;;5107301;27;45603;-76
2022/03/21 03:35:48;;;;;;;5.93;2.08;;;17.90;50.60;;;;;;5107360;27;45171;-76
2022/03/21 03:38:15;;;;;;;3.70;2.22;;;17.90;50.50;;;;;;5105169;27;45915;-76
2022/03/21 03:40:43;;;;;;;4.35;2.38;;;17.90;50.60;;;;;;5099326;27;48393;-76
2022/03/21 03:43:10;;;;;;;3.00;1.92;;;17.90;50.70;;;;;;5107777;27;45557;-76
2022/03/21 03:45:37;;;;;;;4.00;2.20;;;17.90;50.70;;;;;;5107827;27;45275;-76
2022/03/21 03:48:05;;;;;;;3.08;1.95;;;17.90;50.80;;;;;;5108377;27;45213;-75
2022/03/21 03:50:32;;;;;;;3.28;2.15;;;17.80;50.80;;;;;;5105344;27;46572;-76
2022/03/21 03:53:01;;;;;;;2.88;2.22;;;17.90;50.90;;;;;;5108148;27;45178;-76
2022/03/21 03:55:28;;;;;;;3.75;2.13;;;17.80;50.90;;;;;;5108687;27;45311;-76
2022/03/21 03:57:55;;;;;;;4.50;2.00;;;17.80;50.80;;;;;;5108629;27;45363;-76
2022/03/21 04:00:21;;;;;;;3.72;2.33;;;17.80;50.90;;;;;;5106066;27;46639;-76
2022/03/21 04:05:33;;;;;;;3.83;2.20;;;17.80;50.90;;;;;;5100876;27;45237;-76
2022/03/21 04:08:01;;;;;;;3.58;2.38;;;17.80;50.90;;;;;;5104588;27;45575;-76
2022/03/21 04:10:28;;;;;;;3.63;2.42;;;17.80;50.80;;;;;;5106134;27;47386;-76
2022/03/21 04:12:54;;;;;;;3.47;2.40;;;17.80;50.90;;;;;;5109329;27;45529;-76
2022/03/21 04:15:22;;;;;;;3.33;2.15;;;17.80;50.80;;;;;;5107035;27;45365;-76
2022/03/21 04:17:50;;;;;;;3.78;2.40;;;17.80;50.70;;;;;;5108565;27;46140;-76
2022/03/21 04:20:17;;;;;;;4.00;2.25;;;17.80;50.70;;;;;;5106449;27;45365;-76
2022/03/21 04:22:44;;;;;;;3.45;2.13;;;17.90;50.70;;;;;;5108721;27;45503;-76
2022/03/21 04:25:13;;;;;;;3.50;2.17;;;17.90;50.70;;;;;;5106871;27;45354;-76
2022/03/21 04:27:40;;;;;;;3.25;2.17;;;17.90;50.60;;;;;;5108897;27;45479;-76
2022/03/21 04:30:08;;;;;;;3.13;2.10;;;17.90;50.60;;;;;;5104452;27;45337;-76
2022/03/21 04:32:35;;;;;;;3.45;2.35;;;17.90;50.60;;;;;;5108181;27;45292;-76
2022/03/21 04:35:04;;;;;;;3.20;2.30;;;17.90;50.60;;;;;;5104771;27;45234;-76
2022/03/21 04:37:31;;;;;;;3.72;1.98;;;17.90;50.50;;;;;;5107380;27;45336;-76
2022/03/21 04:39:58;;;;;;;2.95;2.22;;;17.90;50.50;;;;;;5106784;27;46188;-75
2022/03/21 04:42:26;;;;;;;3.78;2.15;;;17.90;50.50;;;;;;5107455;27;45197;-76
2022/03/21 04:44:53;;;;;;;3.13;2.20;;;17.90;50.60;;;;;;5106017;27;45196;-76
2022/03/21 04:47:22;;;;;;;3.65;2.30;;;17.90;50.50;;;;;;5106600;27;45226;-76
2022/03/21 04:49:49;;;;;;;5.30;2.65;;;17.80;50.40;;;;;;5103060;27;47346;-76
2022/03/21 04:52:16;;;;;;;4.90;2.08;;;17.80;50.30;;;;;;5106934;27;45977;-75
2022/03/21 04:54:42;;;;;;;5.10;2.00;;;17.80;50.30;;;;;;5105218;27;45283;-76
2022/03/21 04:57:11;;;;;;;3.17;2.25;;;17.80;50.30;;;;;;5108658;27;45159;-76
2022/03/21 04:59:39;;;;;;;3.60;2.42;;;17.80;50.30;;;;;;5105499;27;46266;-76
2022/03/21 05:02:06;;;;;;;3.33;2.00;;;17.80;50.40;;;;;;5106143;27;45164;-76
2022/03/21 05:04:33;;;;;;;4.90;2.50;;;17.80;50.40;;;;;;5104447;27;45152;-75
2022/03/21 05:07:00;;;;;;;3.60;2.45;;;17.80;50.40;;;;;;5107996;27;45341;-77
2022/03/21 05:09:27;;;;;;;5.10;2.30;;;17.80;50.40;;;;;;5105395;27;45492;-75
2022/03/21 05:12:01;;;;;;;2.95;2.28;;;17.80;50.40;;;;;;5107741;27;45321;-75
2022/03/21 05:14:28;;;;;;;3.85;2.38;;;17.80;50.40;;;;;;5106641;27;45409;-76
2022/03/21 05:16:56;;;;;;;3.55;2.15;;;17.80;50.40;;;;;;5107099;27;45476;-76
2022/03/21 05:19:23;;;;;;;4.80;2.55;;;17.80;50.40;;;;;;5099561;27;46194;-78
2022/03/21 05:21:50;;;;;;;3.88;2.47;;;17.80;50.40;;;;;;5102303;27;45138;-78
2022/03/21 05:32:30;;;;;;;3.25;2.28;;;17.80;50.50;;;;;;5107237;27;45178;-76
2022/03/21 05:37:42;;;;;;;3.75;2.55;;;17.80;50.40;;;;;;5091031;28;45285;-77
2022/03/21 05:42:55;;;;;;;3.67;2.50;;;17.70;50.40;;;;;;5104002;27;45299;-76
2022/03/21 05:45:21;;;;;;;5.25;2.70;;;17.80;50.40;;;;;;5088960;27;45269;-76
2022/03/21 05:50:36;;;;;;;3.55;2.53;;;17.70;50.20;;;;;;5106708;27;45600;-76
2022/03/21 05:53:03;;;;;;;4.25;2.53;;;17.70;50.30;;;;;;5109080;27;45285;-76
2022/03/21 05:55:31;;;;;;;4.05;2.88;;;17.70;50.20;;;;;;5110343;27;45388;-75
2022/03/21 05:57:58;;;;;;;6.35;3.03;;;17.70;50.20;;;;;;5109233;27;45351;-76
2022/03/21 06:00:25;;;;;;;4.93;2.63;;;17.70;50.10;;;;;;5106835;27;46422;-75
2022/03/21 06:02:54;;;;;;;4.53;2.70;;;17.70;50.00;;;;;;5104679;27;45485;-76
2022/03/21 06:05:22;;;;;;;4.50;2.72;;;17.80;50.20;;;;;;5110996;27;45224;-76
2022/03/21 06:07:50;;;;;;;4.20;2.40;;;17.80;50.20;;;;;;5111011;27;45234;-76
2022/03/21 06:10:17;;;;;;;4.63;2.90;;;17.80;50.20;;;;;;5107606;27;45373;-77
2022/03/21 06:12:44;;;;;;;3.38;2.40;;;17.70;50.20;;;;;;5111209;27;45202;-77
2022/03/21 06:15:11;;;;;;;5.88;2.88;;;17.70;50.40;;;;;;5108953;27;45388;-76
2022/03/21 06:17:39;;;;;;;4.28;2.40;;;17.70;50.60;;;;;;5109046;27;45363;-76
2022/03/21 06:20:09;;;;;;;3.55;2.50;;;17.70;50.70;;;;;;5108091;27;47365;-76
2022/03/21 06:22:36;;;;;;;5.63;2.92;;;17.70;50.90;;;;;;5110342;27;45294;-75
2022/03/21 06:25:04;;;;;;;4.53;3.10;;;17.70;50.90;;;;;;5109389;27;45137;-75
2022/03/21 06:27:31;;;;;;;6.10;2.78;;;17.70;51.00;;;;;;5109894;27;45244;-76
2022/03/21 06:29:58;;;;;;;4.20;2.55;;;17.60;51.00;;;;;;5108638;27;45604;-76
2022/03/21 06:32:25;;;;;;;4.47;2.63;;;17.60;51.20;;;;;;5108956;27;45249;-76
2022/03/21 06:34:52;;;;;;;4.03;2.58;;;17.60;51.10;;;;;;5110071;27;45351;-76
2022/03/21 06:37:21;;;;;;;3.17;2.40;;;17.60;50.90;;;;;;5109623;27;45401;-76
2022/03/21 06:39:48;;;;;;;5.28;2.47;;;17.60;50.80;;;;;;5107837;27;45279;-76
2022/03/21 06:42:15;;;;;;;4.65;2.75;;;17.60;50.80;;;;;;5103899;27;45317;-77
2022/03/21 06:44:42;;;;;;;3.55;2.60;;;17.60;50.90;;;;;;5106454;27;45537;-77
2022/03/21 06:47:09;;;;;;;4.78;2.63;;;17.70;50.90;;;;;;5108170;27;45392;-76
2022/03/21 06:49:36;;;;;;;4.88;2.65;;;17.70;50.00;;;;;;5103822;27;46195;-76
2022/03/21 06:52:06;;;;;;;4.00;2.85;;;17.80;49.10;;;;;;5101633;27;45353;-76
2022/03/21 06:54:34;;;;;;;5.00;2.90;;;17.80;49.60;;;;;;5107116;27;45324;-76
2022/03/21 06:57:01;;;;;;;4.18;2.70;;;17.80;48.10;;;;;;5106261;27;45506;-77
2022/03/21 06:59:29;;;;;;;5.03;2.97;;;17.80;47.80;;;;;;5106082;27;45311;-76
2022/03/21 07:01:56;;;;;;;4.82;2.63;;;17.80;47.30;;;;;;5107116;27;45394;-76
2022/03/21 07:04:23;;;;;;;5.32;2.85;;;17.80;47.30;;;;;;5108169;27;45295;-76
2022/03/21 07:06:50;;;;;;;4.03;2.63;;;17.80;47.60;;;;;;5108900;27;45232;-76
2022/03/21 07:09:17;;;;;;;6.18;3.00;;;17.80;47.20;;;;;;5107947;27;47384;-76
2022/03/21 07:11:45;;;;;;;4.80;2.80;;;17.80;47.50;;;;;;5109352;27;45175;-76
2022/03/21 07:14:13;;;;;;;5.63;3.33;;;17.80;47.50;;;;;;5109936;27;45367;-76
2022/03/21 07:16:40;;;;;;;5.07;3.03;;;17.80;47.40;;;;;;5109019;27;45142;-77
2022/03/21 07:19:07;;;;;;;4.80;3.00;;;17.80;47.70;;;;;;5109100;27;47423;-77
2022/03/21 07:21:34;;;;;;;5.85;3.45;;;17.80;47.40;;;;;;5109110;27;45196;-77
2022/03/21 07:24:01;;;;;;;5.32;3.13;;;17.70;47.60;;;;;;5110341;27;45206;-78
2022/03/21 07:26:28;;;;;;;5.43;3.10;;;17.80;48.00;;;;;;5107448;27;45305;-78
2022/03/21 07:28:56;;;;;;;5.40;3.13;;;17.80;48.70;;;;;;5099826;27;48248;-77
2022/03/21 07:31:23;;;;;;;7.28;3.10;;;17.70;49.00;;;;;;5098275;27;45344;-78
2022/03/21 07:33:50;;;;;;;5.45;3.40;;;17.70;49.20;;;;;;5103332;27;45221;-77
2022/03/21 07:36:17;;;;;;;4.43;3.00;;;17.70;49.40;;;;;;5108470;27;45413;-76
2022/03/21 07:38:44;;;;;;;7.43;3.75;;;17.70;49.60;;;;;;5099901;27;47441;-78
2022/03/21 07:41:10;;;;;;;4.53;3.20;;;17.70;49.90;;;;;;5106970;27;45586;-78
2022/03/21 07:43:38;;;;;;;5.22;3.13;;;17.70;49.90;;;;;;5104003;27;45277;-77
2022/03/21 07:48:51;;;;;;;6.43;3.55;;;17.70;50.30;;;;;;5098447;27;45674;-77
2022/03/21 07:51:18;;;;;;;4.75;3.33;;;17.80;50.10;;;;;;5109107;27;45647;-77
2022/03/21 07:53:45;;;;;;;6.60;3.60;;;17.80;50.20;;;;;;5107820;27;45840;-76
2022/03/21 07:56:12;;;;;;;6.20;3.20;;;17.80;50.20;;;;;;5103111;27;45353;-76
2022/03/21 07:58:39;;;;;;;4.35;2.97;;;17.80;50.10;;;;;;5101778;27;46213;-77
2022/03/21 08:01:07;;;;;;;4.32;3.17;;;17.80;50.20;;;;;;5107697;27;45308;-77
2022/03/21 08:03:34;;;;;;;6.15;3.22;;;17.90;50.20;;;;;;5109054;27;45212;-77
2022/03/21 08:06:02;;;;;;;4.93;3.15;;;17.90;50.20;;;;;;5107320;27;45357;-76
2022/03/21 08:08:29;;;;;;;6.78;3.95;;;17.90;50.30;;;;;;5106661;27;46205;-76
2022/03/21 08:10:57;;;;;;;5.18;3.20;;;17.90;50.40;;;;;;5108908;27;45239;-76
2022/03/21 08:13:25;;;;;;;4.80;3.63;;;17.90;50.40;;;;;;5108217;27;45299;-77
2022/03/21 08:15:52;;;;;;;5.20;3.35;;;17.90;50.30;;;;;;5104739;27;45300;-77
2022/03/21 08:18:20;;;;;;;4.28;3.20;;;17.90;50.70;;;;;;5106759;27;47414;-77
2022/03/21 08:20:47;;;;;;;6.70;3.90;;;17.90;50.70;;;;;;5108700;27;45266;-77
2022/03/21 08:23:15;;;;;;;5.57;3.35;;;17.80;50.70;;;;;;5105660;27;45361;-77
2022/03/21 08:25:43;;;;;;;7.15;4.53;;;17.80;50.70;;;;;;5107761;27;45267;-77
2022/03/21 08:28:11;;;;;;;6.20;3.90;;;17.80;50.90;;;;;;5107989;27;45260;-76
2022/03/21 08:30:39;;;;;;;5.15;3.83;;;17.80;50.90;;;;;;5106025;27;45253;-77
2022/03/21 08:33:07;;;;;;;6.63;4.10;;;17.90;51.10;;;;;;5102301;27;45128;-77
2022/03/21 08:35:37;;;;;;;6.05;3.95;;;17.90;51.00;;;;;;5107992;27;45286;-77
2022/03/21 08:38:04;;;;;;;6.13;4.13;;;17.80;51.00;;;;;;5108740;27;46272;-77
2022/03/21 08:40:31;;;;;;;4.55;3.47;;;17.80;51.10;;;;;;5107021;27;45197;-77
2022/03/21 08:42:58;;;;;;;6.80;4.07;;;17.90;51.10;;;;;;5108231;27;45272;-76
2022/03/21 08:45:25;;;;;;;4.85;3.25;;;17.80;50.90;;;;;;5106722;27;45236;-76
2022/03/21 08:47:53;;;;;;;5.93;4.00;;;17.90;50.90;;;;;;5106305;27;46609;-77
2022/03/21 08:50:20;;;;;;;7.85;4.22;;;17.90;50.80;;;;;;5107666;27;45142;-76
2022/03/21 08:52:49;;;;;;;5.35;3.65;;;17.90;50.70;;;;;;5106801;27;45168;-77
2022/03/21 08:55:15;;;;;;;5.05;3.30;;;17.90;50.60;;;;;;5107470;27;45339;-76
2022/03/21 08:57:42;;;;;;;5.55;3.90;;;17.90;50.60;;;;;;5106896;27;45409;-76
2022/03/21 09:00:11;;;;;;;5.63;3.58;;;17.90;50.60;;;;;;5106854;27;45197;-77
2022/03/21 09:02:38;;;;;;;5.95;3.65;;;17.90;50.50;;;;;;5106095;27;45680;-77
2022/03/21 09:05:05;;;;;;;5.90;3.70;;;17.90;50.50;;;;;;5108516;27;45297;-77
2022/03/21 09:07:33;;;;;;;5.47;3.92;;;18.00;50.60;;;;;;5108265;27;46438;-76
2022/03/21 09:10:01;;;;;;;5.40;3.72;;;18.00;50.70;;;;;;5103311;27;45393;-76
2022/03/21 09:12:29;;;;;;;7.38;4.43;;;18.00;50.90;;;;;;5108653;27;45525;-76
2022/03/21 09:14:55;;;;;;;6.32;3.75;;;18.00;50.90;;;;;;5102805;27;45702;-77
2022/03/21 09:17:22;;;;;;;6.25;3.85;;;18.00;51.10;;;;;;5097571;27;46510;-76
2022/03/21 09:19:49;;;;;;;5.53;4.13;;;17.90;50.90;;;;;;5107269;27;45228;-77
2022/03/21 09:22:16;;;;;;;6.80;4.75;;;17.90;50.90;;;;;;5107921;27;45270;-77
2022/03/21 09:24:42;;;;;;;5.85;4.32;;;17.90;51.10;;;;;;5106813;27;45208;-77
2022/03/21 09:27:11;;;;;;;6.60;4.25;;;17.90;51.10;;;;;;5108036;27;47802;-77
2022/03/21 09:29:39;;;;;;;5.60;4.13;;;17.90;51.10;;;;;;5107096;27;45259;-76
2022/03/21 09:32:06;;;;;;;6.05;4.30;;;17.90;51.20;;;;;;5107091;27;45407;-76
2022/03/21 09:34:39;;;;;;;5.70;4.18;;;17.90;51.40;;;;;;5107591;27;45392;-77
2022/03/21 09:37:06;;;;;;;6.72;4.80;;;17.90;51.50;;;;;;5106976;27;48451;-77
2022/03/21 09:39:32;;;;;;;6.18;4.18;;;17.90;51.50;;;;;;5105245;27;45189;-77
2022/03/21 09:42:01;;;;;;;6.35;4.47;;;17.90;51.30;;;;;;5103461;27;45218;-76
2022/03/21 09:44:30;;;;;;;5.93;4.22;;;17.90;51.30;;;;;;5107946;27;45164;-76
2022/03/21 09:48:08;;;;;;;6.43;3.97;;;18.00;51.40;;;;;;5104130;27;48047;-76
2022/03/21 09:49:47;;;;;;;6.25;4.30;;;18.00;51.40;;;;;;5106169;27;45304;-76
2022/03/21 09:52:14;;;;;;;6.68;4.53;;;18.00;51.30;;;;;;5093766;27;45646;-77
2022/03/21 09:54:41;;;;;;;6.35;3.97;;;18.00;51.40;;;;;;5106394;27;45174;-77
2022/03/21 09:57:07;;;;;;;6.05;4.00;;;18.00;51.30;;;;;;5107830;27;45412;-77
2022/03/21 09:59:36;;;;;;;6.50;3.92;;;18.00;51.40;;;;;;5104442;27;45219;-77
2022/03/21 10:02:03;;;;;;;8.18;4.60;;;18.00;51.50;;;;;;5106750;27;45245;-77
2022/03/21 10:04:30;;;;;;;5.78;4.28;;;18.00;51.60;;;;;;5105672;27;45411;-77
2022/03/21 10:07:00;;;;;;;5.85;4.55;;;18.00;51.60;;;;;;5106380;27;45267;-77
2022/03/21 10:09:27;;;;;;;6.47;4.65;;;18.00;51.70;;;;;;5106430;27;45310;-77
2022/03/21 10:11:55;;;;;;;6.68;4.45;;;18.00;52.20;;;;;;5106677;27;45225;-77
2022/03/21 10:14:27;;;;;;;7.15;4.95;;;17.90;52.00;;;;;;5110111;27;45286;-77
2022/03/21 10:16:57;;;;;;;8.05;4.10;;;17.90;52.20;;;;;;5107040;27;45151;-77
2022/03/21 10:19:25;;;;;;;6.28;4.38;;;17.90;52.20;;;;;;5109794;27;45610;-77
2022/03/21 10:22:03;;;;;;;7.05;4.38;;;18.00;51.80;;;;;;5108886;27;45263;-77
2022/03/21 10:24:38;;;;;;;7.32;4.60;;;18.00;52.20;;;;;;5106611;27;45214;-77
2022/03/21 10:27:06;;;;;;;6.90;5.00;;;18.00;52.20;;;;;;5108243;27;45281;-77
2022/03/21 10:29:33;;;;;;;6.60;4.13;;;18.00;52.20;;;;;;5109519;27;45188;-77
2022/03/21 10:32:01;;;;;;;6.72;4.60;;;18.00;52.20;;;;;;5098278;27;45233;-77
2022/03/21 10:34:33;;;;;;;5.90;4.10;;;17.90;52.20;;;;;;5110582;27;45168;-77
2022/03/21 10:37:02;;;;;;;6.55;3.60;;;18.00;52.20;;;;;;5089736;27;47923;-77
2022/03/21 10:39:31;;;;;;;6.80;4.30;;;18.00;52.20;;;;;;5102595;27;45470;-77
2022/03/21 10:41:59;;;;;;;5.63;3.90;;;18.00;52.20;;;;;;5110475;27;45215;-77
2022/03/21 10:44:27;;;;;;;6.32;4.50;;;18.00;52.20;;;;;;5109200;27;45315;-77
2022/03/21 10:46:54;;;;;;;5.57;3.97;;;18.00;52.20;;;;;;5107436;27;47169;-77
2022/03/21 10:49:31;;;;;;;5.53;4.00;;;18.00;52.00;;;;;;5107135;27;45174;-77
2022/03/21 10:51:58;;;;;;;5.47;4.28;;;18.00;52.20;;;;;;5090434;27;45319;-76
2022/03/21 10:54:43;;;;;;;6.10;4.25;;;18.00;52.20;;;;;;5090267;27;45209;-77
2022/03/21 10:57:27;;;;;;;7.13;4.38;;;18.10;53.60;;;;;;5088522;28;47860;-77
2022/03/21 11:00:12;;;;;;;5.93;4.38;;;18.10;52.30;;;;;;5104384;27;46297;-77
2022/03/21 11:02:52;;;;;;;6.88;5.20;;;18.10;52.30;;;;;;5110105;27;45233;-77
2022/03/21 11:05:21;;;;;;;7.32;4.80;;;18.00;52.20;;;;;;5099777;27;45302;-77
2022/03/21 11:07:49;;;;;;;6.80;4.03;;;18.00;52.20;;;;;;5110417;27;45206;-77
2022/03/21 11:10:17;;;;;;;7.03;4.90;;;18.00;52.20;;;;;;5107659;27;45474;-77
2022/03/21 11:12:45;;;;;;;6.90;4.80;;;18.00;52.20;;;;;;5109659;27;45516;-77
2022/03/21 11:15:13;;;;;;;6.80;4.80;;;18.00;52.30;;;;;;5109885;27;45154;-76
2022/03/21 11:17:41;;;;;;;6.65;4.30;;;18.00;52.20;;;;;;5109198;27;45985;-77
2022/03/21 11:20:10;;;;;;;7.75;4.68;;;18.00;52.20;;;;;;5109187;27;45170;-77
2022/03/21 11:22:39;;;;;;;6.95;4.47;;;18.00;52.30;;;;;;5109539;27;45412;-77
2022/03/21 11:25:08;;;;;;;7.00;4.70;;;18.00;52.20;;;;;;5108639;27;45226;-77
2022/03/21 11:28:01;;;;;;;7.25;4.38;;;18.00;52.20;;;;;;5107808;27;46608;-77
2022/03/21 11:30:41;;;;;;;5.25;4.03;;;18.00;52.20;;;;;;5106057;27;45813;-77
2022/03/21 11:33:20;;;;;;;6.43;4.43;;;18.00;52.20;;;;;;5105752;27;45825;-77
2022/03/21 11:35:52;;;;;;;6.88;4.22;;;18.00;52.20;;;;;;5108666;27;45391;-77
2022/03/21 11:38:24;;;;;;;6.10;4.20;;;18.00;52.20;;;;;;5108337;27;47137;-77
2022/03/21 11:40:52;;;;;;;5.45;3.72;;;18.00;52.20;;;;;;5105104;27;45278;-77
2022/03/21 11:43:29;;;;;;;6.22;4.20;;;18.10;52.30;;;;;;5107145;27;45163;-77
2022/03/21 11:45:57;;;;;;;5.60;4.15;;;18.10;52.30;;;;;;5108362;27;45644;-77
2022/03/21 11:48:37;;;;;;;5.28;3.60;;;18.10;52.30;;;;;;5115409;27;46580;-77
2022/03/21 11:51:35;;;;;;;7.00;4.28;;;18.10;52.30;;;;;;5109996;27;45266;-77
2022/03/21 11:54:07;;;;;;;8.13;4.40;;;18.10;52.30;;;;;;5088858;27;45519;-77
2022/03/21 11:56:53;;;;;;;5.72;4.18;;;18.10;52.30;;;;;;5108682;27;45539;-77
2022/03/21 11:59:52;;;;;;;6.95;4.70;;;18.00;52.40;;;;;;5106076;27;48384;-77
2022/03/21 12:03:00;;;;;;;6.68;4.22;;;18.00;52.30;;;;;;5099339;27;45320;-77
2022/03/21 12:05:50;;;;;;;6.22;4.57;;;18.00;53.00;;;;;;5105410;27;45334;-77
2022/03/21 12:08:52;;;;;;;5.35;4.10;;;18.00;52.90;;;;;;5103749;27;45463;-76
2022/03/21 12:12:01;;;;;;;7.15;4.80;;;18.00;52.50;;;;;;5103414;27;47852;-77
2022/03/21 12:14:40;;;;;;;6.22;4.60;;;18.00;52.90;;;;;;5099171;27;45511;-77
2022/03/21 12:17:30;;;;;;;6.03;4.18;;;18.00;52.80;;;;;;5106327;27;45297;-77
2022/03/21 12:20:15;;;;;;;5.38;4.00;;;18.00;52.90;;;;;;5108027;27;45277;-77
2022/03/21 12:23:00;;;;;;;6.75;3.47;;;18.00;53.20;;;;;;5101797;27;46199;-77
2022/03/21 12:25:44;;;;;;;4.35;3.00;;;18.00;52.20;;;;;;5101899;27;45383;-77
2022/03/21 12:31:27;;;;;;;4.35;3.55;;;18.00;52.20;;;;;;5099332;27;46816;-77
2022/03/21 12:33:54;;;;;;;6.85;3.95;;;18.00;52.70;;;;;;5108101;27;46434;-77
2022/03/21 12:36:33;;;;;;;5.60;3.78;;;18.00;53.30;;;;;;5095998;27;45298;-76
2022/03/21 12:39:01;;;;;;;6.13;3.90;;;18.00;53.00;;;;;;5105480;27;45375;-76
2022/03/21 12:41:33;;;;;;;5.97;3.90;;;18.00;53.00;;;;;;5101267;27;45418;-76
2022/03/21 12:44:00;;;;;;;4.53;3.47;;;18.00;53.00;;;;;;5108149;27;45982;-76
2022/03/21 12:46:28;;;;;;;6.00;3.72;;;18.00;53.30;;;;;;5104491;27;45395;-76
2022/03/21 12:49:00;;;;;;;4.63;3.30;;;18.00;53.10;;;;;;5100591;27;45411;-76
2022/03/21 12:51:34;;;;;;;6.15;3.78;;;18.00;53.10;;;;;;5108186;27;45308;-76
2022/03/21 12:54:02;;;;;;;5.55;3.72;;;18.00;53.20;;;;;;5105952;27;48595;-76
2022/03/21 12:56:29;;;;;;;5.68;3.60;;;18.00;53.10;;;;;;5105635;27;45412;-76
2022/03/21 12:59:00;;;;;;;5.38;3.55;;;17.90;53.40;;;;;;5106825;27;45156;-76
2022/03/21 13:01:29;;;;;;;5.15;3.50;;;18.00;53.20;;;;;;5105141;27;45299;-75
2022/03/21 13:10:32;;;;;;;4.85;3.47;;;18.00;53.50;;;;;;5106008;27;48003;-76
2022/03/21 13:12:30;;;;;;;4.93;3.40;;;18.00;53.40;;;;;;5104944;27;45219;-78
2022/03/21 13:15:05;;;;;;;5.35;4.00;;;18.00;53.50;;;;;;5101371;27;47929;-75
2022/03/21 13:17:51;;;;;;;4.95;3.75;;;18.00;53.50;;;;;;5103731;27;45198;-76
2022/03/21 13:20:22;;;;;;;4.68;3.28;;;18.00;53.30;;;;;;5107640;27;45203;-76
2022/03/21 13:22:50;;;;;;;4.30;2.95;;;18.00;52.90;;;;;;5106607;27;45206;-76
2022/03/21 13:25:29;;;;;;;5.90;3.00;;;18.00;53.00;;;;;;5107143;27;45488;-75
2022/03/21 13:28:10;;;;;;;5.35;3.08;;;18.00;52.90;;;;;;5108066;27;45503;-75
2022/03/21 13:30:39;;;;;;;4.60;3.10;;;18.10;53.00;;;;;;5107112;27;45253;-76
2022/03/21 13:33:07;;;;;;;3.85;2.83;;;18.10;53.20;;;;;;5104437;27;45205;-77